Time,TemperatureF,DewpointF,PressureIn,WindDirection,WindDirectionDegrees,WindSpeedMPH,WindSpeedGustMPH,Humidity,HourlyPrecipIn,Conditions,Clouds,dailyrainin,SoftwareType,DateUTC
2013-02-17 00:04:00,38.5,21.9,29.85,WSW,248,0.0,0.0,51,0.00,,CLR,0.00,VWS V14.01,2013-02-17 06:04:00,
2013-02-17 00:10:00,38.5,21.9,29.85,WSW,248,1.1,2.0,51,0.00,,CLR,0.00,VWS V14.01,2013-02-17 06:10:00,
2013-02-17 00:15:00,38.8,22.3,29.85,WSW,248,1.3,1.6,51,0.00,,CLR,0.00,VWS V14.01,2013-02-17 06:15:00,
2013-02-17 00:20:00,39.0,22.4,29.85,WSW,248,0.0,0.0,51,0.00,,CLR,0.00,VWS V14.01,2013-02-17 06:20:00,
2013-02-17 00:25:00,39.2,22.6,29.85,WSW,248,0.0,0.0,51,0.00,,CLR,0.00,VWS V14.01,2013-02-17 06:25:00,
2013-02-17 00:31:00,39.4,22.3,29.85,WSW,248,0.0,0.0,50,0.00,,CLR,0.00,VWS V14.01,2013-02-17 06:31:00,
2013-02-17 00:36:00,39.6,22.5,29.85,WSW,248,0.0,0.0,50,0.00,,CLR,0.00,VWS V14.01,2013-02-17 06:36:00,
2013-02-17 00:42:00,39.6,22.5,29.85,WSW,248,0.0,0.0,50,0.00,,CLR,0.00,VWS V14.01,2013-02-17 06:42:00,
2013-02-17 00:47:00,40.3,22.7,29.85,WSW,248,0.0,0.0,49,0.00,,CLR,0.00,VWS V14.01,2013-02-17 06:47:00,
2013-02-17 00:53:00,41.0,22.8,29.88,WSW,248,2.9,3.4,48,0.00,,CLR,0.00,VWS V14.01,2013-02-17 06:53:00,
2013-02-17 00:58:00,41.2,22.5,29.88,WSW,248,2.7,3.1,47,0.00,,CLR,0.00,VWS V14.01,2013-02-17 06:58:00,
2013-02-17 01:03:00,41.4,22.7,29.88,WSW,248,3.4,3.4,47,0.00,,CLR,0.00,VWS V14.01,2013-02-17 07:03:00,
2013-02-17 01:09:00,41.4,22.7,29.85,West,270,2.7,3.6,47,0.00,,CLR,0.00,VWS V14.01,2013-02-17 07:09:00,
2013-02-17 01:14:00,41.4,22.7,29.85,WSW,248,3.1,3.1,47,0.00,,CLR,0.00,VWS V14.01,2013-02-17 07:14:00,
2013-02-17 01:20:00,41.5,22.8,29.85,WSW,248,2.9,2.9,47,0.00,,CLR,0.00,VWS V14.01,2013-02-17 07:20:00,
2013-02-17 01:26:00,41.5,22.8,29.85,WSW,248,2.9,3.6,47,0.00,,CLR,0.00,VWS V14.01,2013-02-17 07:26:00,
2013-02-17 01:32:00,41.5,22.8,29.85,WSW,248,3.1,3.4,47,0.00,,CLR,0.00,VWS V14.01,2013-02-17 07:32:00,
2013-02-17 01:38:00,41.5,22.8,29.85,WSW,248,3.6,3.6,47,0.00,,CLR,0.00,VWS V14.01,2013-02-17 07:38:00,
2013-02-17 01:43:00,41.5,23.3,29.85,WSW,248,3.4,3.4,48,0.00,,CLR,0.00,VWS V14.01,2013-02-17 07:43:00,
2013-02-17 01:49:00,41.4,23.2,29.85,WSW,248,2.9,2.9,48,0.00,,CLR,0.00,VWS V14.01,2013-02-17 07:49:00,
2013-02-17 01:54:00,41.2,23.0,29.85,WSW,248,2.0,2.5,48,0.00,,CLR,0.00,VWS V14.01,2013-02-17 07:54:00,
2013-02-17 01:59:00,41.0,22.8,29.85,WSW,248,2.7,2.9,48,0.00,,CLR,0.00,VWS V14.01,2013-02-17 07:59:00,
2013-02-17 02:04:00,40.8,23.1,29.85,West,270,1.6,2.9,49,0.00,,CLR,0.00,VWS V14.01,2013-02-17 08:04:00,
2013-02-17 02:10:00,40.6,23.5,29.85,WSW,248,2.5,2.5,50,0.00,,CLR,0.00,VWS V14.01,2013-02-17 08:10:00,
2013-02-17 02:15:00,40.6,23.5,29.85,WSW,248,2.2,2.9,50,0.00,,CLR,0.00,VWS V14.01,2013-02-17 08:15:00,
2013-02-17 02:20:00,40.6,23.9,29.82,WNW,292,2.9,2.9,51,0.00,,CLR,0.00,VWS V14.01,2013-02-17 08:20:00,
2013-02-17 02:26:00,40.8,24.1,29.82,WSW,248,2.7,3.8,51,0.00,,CLR,0.00,VWS V14.01,2013-02-17 08:26:00,
2013-02-17 02:32:00,41.0,24.3,29.82,WSW,248,1.3,2.5,51,0.00,,CLR,0.00,VWS V14.01,2013-02-17 08:32:00,
2013-02-17 02:38:00,41.0,24.3,29.82,WNW,292,2.0,2.7,51,0.00,,CLR,0.00,VWS V14.01,2013-02-17 08:38:00,
2013-02-17 02:44:00,40.8,24.6,29.82,WSW,248,4.3,4.3,52,0.00,,CLR,0.00,VWS V14.01,2013-02-17 08:44:00,
2013-02-17 02:49:00,40.6,24.4,29.82,West,270,2.7,2.9,52,0.00,,CLR,0.00,VWS V14.01,2013-02-17 08:49:00,
2013-02-17 02:55:00,40.5,24.2,29.82,WSW,248,2.7,3.1,52,0.00,,CLR,0.00,VWS V14.01,2013-02-17 08:55:00,
2013-02-17 03:00:00,40.5,24.7,29.82,West,270,2.9,4.0,53,0.00,,CLR,0.00,VWS V14.01,2013-02-17 09:00:00,
2013-02-17 03:06:00,40.5,24.7,29.82,WNW,292,3.8,3.8,53,0.00,,CLR,0.00,VWS V14.01,2013-02-17 09:06:00,
2013-02-17 03:11:00,40.5,24.7,29.82,WSW,248,3.1,3.8,53,0.00,,CLR,0.00,VWS V14.01,2013-02-17 09:11:00,
2013-02-17 03:17:00,40.5,24.7,29.82,WSW,248,1.6,3.4,53,0.00,,CLR,0.00,VWS V14.01,2013-02-17 09:17:00,
2013-02-17 03:22:00,40.5,24.7,29.82,WSW,248,2.5,3.8,53,0.00,,CLR,0.00,VWS V14.01,2013-02-17 09:22:00,
2013-02-17 03:28:00,40.5,24.7,29.82,WSW,248,2.7,2.7,53,0.00,,CLR,0.00,VWS V14.01,2013-02-17 09:28:00,
2013-02-17 03:33:00,40.3,24.5,29.82,WSW,248,2.5,3.4,53,0.00,,CLR,0.00,VWS V14.01,2013-02-17 09:33:00,
2013-02-17 03:38:00,40.3,25.0,29.79,WSW,248,2.0,3.4,54,0.00,,CLR,0.00,VWS V14.01,2013-02-17 09:38:00,
2013-02-17 03:44:00,40.5,25.1,29.79,WSW,248,5.4,5.4,54,0.00,,CLR,0.00,VWS V14.01,2013-02-17 09:44:00,
2013-02-17 03:49:00,40.6,25.3,29.79,West,270,2.5,3.6,54,0.00,,CLR,0.00,VWS V14.01,2013-02-17 09:49:00,
2013-02-17 03:54:00,40.6,24.9,29.82,SSW,202,1.3,3.6,53,0.00,,CLR,0.00,VWS V14.01,2013-02-17 09:54:00,
2013-02-17 03:59:00,40.6,24.9,29.82,WSW,248,2.5,2.5,53,0.00,,CLR,0.00,VWS V14.01,2013-02-17 09:59:00,
2013-02-17 04:05:00,40.6,24.9,29.82,West,270,3.6,3.6,53,0.00,,CLR,0.00,VWS V14.01,2013-02-17 10:05:00,
2013-02-17 04:10:00,40.5,25.1,29.82,West,270,2.0,2.5,54,0.00,,CLR,0.00,VWS V14.01,2013-02-17 10:10:00,
2013-02-17 04:16:00,40.5,25.1,29.82,WSW,248,2.5,2.5,54,0.00,,CLR,0.00,VWS V14.01,2013-02-17 10:16:00,
2013-02-17 04:21:00,40.3,25.0,29.82,WSW,248,2.2,2.5,54,0.00,,CLR,0.00,VWS V14.01,2013-02-17 10:21:00,
2013-02-17 04:26:00,40.1,24.8,29.82,West,270,2.0,2.2,54,0.00,,CLR,0.00,VWS V14.01,2013-02-17 10:26:00,
2013-02-17 04:31:00,39.9,24.6,29.82,WSW,248,0.9,2.0,54,0.00,,CLR,0.00,VWS V14.01,2013-02-17 10:31:00,
2013-02-17 04:37:00,39.7,24.5,29.82,SSW,202,0.0,0.0,54,0.00,,CLR,0.00,VWS V14.01,2013-02-17 10:37:00,
2013-02-17 04:42:00,39.4,24.6,29.82,West,270,0.0,0.0,55,0.00,,CLR,0.00,VWS V14.01,2013-02-17 10:42:00,
2013-02-17 04:48:00,38.8,23.6,29.82,NNW,338,1.1,1.3,54,0.00,,CLR,0.00,VWS V14.01,2013-02-17 10:48:00,
2013-02-17 04:54:00,38.7,23.9,29.82,NW,315,2.0,2.5,55,0.00,,CLR,0.00,VWS V14.01,2013-02-17 10:54:00,
2013-02-17 05:00:00,38.5,23.7,29.82,West,270,1.1,1.3,55,0.00,,CLR,0.00,VWS V14.01,2013-02-17 11:00:00,
2013-02-17 05:05:00,38.5,23.7,29.82,West,270,0.0,0.0,55,0.00,,CLR,0.00,VWS V14.01,2013-02-17 11:05:00,
2013-02-17 05:11:00,38.1,23.4,29.82,West,270,0.0,0.0,55,0.00,,CLR,0.00,VWS V14.01,2013-02-17 11:11:00,
2013-02-17 05:16:00,37.9,23.7,29.82,West,270,0.0,0.0,56,0.00,,CLR,0.00,VWS V14.01,2013-02-17 11:16:00,
2013-02-17 05:21:00,37.8,23.5,29.82,WSW,248,0.0,0.0,56,0.00,,CLR,0.00,VWS V14.01,2013-02-17 11:21:00,
2013-02-17 05:27:00,38.1,25.1,29.82,WSW,248,0.0,0.0,59,0.00,,CLR,0.00,VWS V14.01,2013-02-17 11:27:00,
2013-02-17 05:32:00,38.3,25.6,29.82,WSW,248,0.0,0.0,60,0.00,,CLR,0.00,VWS V14.01,2013-02-17 11:32:00,
2013-02-17 05:37:00,38.5,26.2,29.82,WSW,248,2.2,2.2,61,0.00,,CLR,0.00,VWS V14.01,2013-02-17 11:37:00,
2013-02-17 05:42:00,38.7,26.4,29.82,WSW,248,2.0,2.5,61,0.00,,CLR,0.00,VWS V14.01,2013-02-17 11:42:00,
2013-02-17 05:48:00,38.7,26.4,29.82,WSW,248,2.2,2.5,61,0.00,,CLR,0.00,VWS V14.01,2013-02-17 11:48:00,
2013-02-17 05:53:00,38.7,26.4,29.82,WSW,248,2.0,2.7,61,0.00,,CLR,0.00,VWS V14.01,2013-02-17 11:53:00,
2013-02-17 05:58:00,38.5,26.2,29.82,WSW,248,0.0,0.0,61,0.00,,CLR,0.00,VWS V14.01,2013-02-17 11:58:00,
2013-02-17 06:04:00,38.5,26.6,29.82,WSW,248,0.0,0.0,62,0.00,,CLR,0.00,VWS V14.01,2013-02-17 12:04:00,
2013-02-17 06:09:00,38.5,26.6,29.82,WSW,248,0.0,0.0,62,0.00,,CLR,0.00,VWS V14.01,2013-02-17 12:09:00,
2013-02-17 06:14:00,38.1,25.9,29.82,WSW,248,0.0,0.0,61,0.00,,CLR,0.00,VWS V14.01,2013-02-17 12:14:00,
2013-02-17 06:19:00,37.9,26.1,29.82,WSW,248,0.0,0.0,62,0.00,,CLR,0.00,VWS V14.01,2013-02-17 12:19:00,
2013-02-17 06:24:00,37.9,26.5,29.85,WSW,248,0.0,0.0,63,0.00,,CLR,0.00,VWS V14.01,2013-02-17 12:24:00,
2013-02-17 06:30:00,37.9,26.5,29.85,WSW,248,0.0,0.0,63,0.00,,CLR,0.00,VWS V14.01,2013-02-17 12:30:00,
2013-02-17 06:36:00,37.9,26.5,29.85,WSW,248,0.0,0.0,63,0.00,,CLR,0.00,VWS V14.01,2013-02-17 12:36:00,
2013-02-17 06:41:00,37.9,26.9,29.85,WSW,248,0.0,0.0,64,0.00,,CLR,0.00,VWS V14.01,2013-02-17 12:41:00,
2013-02-17 06:47:00,37.8,27.1,29.85,WSW,248,0.0,0.0,65,0.00,,CLR,0.00,VWS V14.01,2013-02-17 12:47:00,
2013-02-17 06:52:00,37.9,27.6,29.85,WSW,248,0.0,0.0,66,0.00,,CLR,0.00,VWS V14.01,2013-02-17 12:52:00,
2013-02-17 06:58:00,37.9,27.6,29.85,WSW,248,0.0,0.0,66,0.00,,CLR,0.00,VWS V14.01,2013-02-17 12:58:00,
2013-02-17 07:03:00,37.9,28.0,29.85,WSW,248,0.0,0.0,67,0.00,,CLR,0.00,VWS V14.01,2013-02-17 13:03:00,
2013-02-17 07:08:00,37.9,28.3,29.85,WSW,248,0.0,0.0,68,0.00,,CLR,0.00,VWS V14.01,2013-02-17 13:08:00,
2013-02-17 07:13:00,38.1,28.5,29.85,WSW,248,0.0,0.0,68,0.00,,CLR,0.00,VWS V14.01,2013-02-17 13:13:00,
2013-02-17 07:18:00,38.3,29.0,29.85,West,270,2.5,2.7,69,0.00,,CLR,0.00,VWS V14.01,2013-02-17 13:18:00,
2013-02-17 07:23:00,38.7,29.4,29.85,WSW,248,2.7,2.7,69,0.00,,CLR,0.00,VWS V14.01,2013-02-17 13:23:00,
2013-02-17 07:28:00,38.8,29.5,29.85,WSW,248,2.7,2.7,69,0.00,,CLR,0.00,VWS V14.01,2013-02-17 13:28:00,
2013-02-17 07:33:00,39.2,29.5,29.85,WSW,248,2.2,2.5,68,0.00,,CLR,0.00,VWS V14.01,2013-02-17 13:33:00,
2013-02-17 07:38:00,39.4,29.7,29.85,WSW,248,2.0,2.0,68,0.00,,CLR,0.00,VWS V14.01,2013-02-17 13:38:00,
2013-02-17 07:43:00,39.7,30.4,29.85,WSW,248,2.0,2.7,69,0.00,,CLR,0.00,VWS V14.01,2013-02-17 13:43:00,
2013-02-17 07:48:00,39.9,30.6,29.85,SW,225,2.2,2.2,69,0.00,,CLR,0.00,VWS V14.01,2013-02-17 13:48:00,
2013-02-17 07:53:00,40.3,30.9,29.85,WNW,292,2.5,2.9,69,0.00,,CLR,0.00,VWS V14.01,2013-02-17 13:53:00,
2013-02-17 07:58:00,40.6,31.6,29.85,West,270,0.0,0.0,70,0.00,,CLR,0.00,VWS V14.01,2013-02-17 13:58:00,
2013-02-17 08:03:00,40.8,31.8,29.85,WNW,292,4.3,4.3,70,0.00,,CLR,0.00,VWS V14.01,2013-02-17 14:03:00,
2013-02-17 08:09:00,41.7,32.3,29.85,WNW,292,1.6,4.0,69,0.00,,CLR,0.00,VWS V14.01,2013-02-17 14:09:00,
2013-02-17 08:14:00,42.3,32.8,29.85,WSW,248,2.7,3.6,69,0.00,,CLR,0.00,VWS V14.01,2013-02-17 14:14:00,
2013-02-17 08:19:00,42.6,33.2,29.85,West,270,3.8,3.8,69,0.00,,CLR,0.00,VWS V14.01,2013-02-17 14:19:00,
2013-02-17 08:24:00,43.3,33.1,29.82,WSW,248,3.8,4.9,67,0.00,,CLR,0.00,VWS V14.01,2013-02-17 14:24:00,
2013-02-17 08:29:00,43.7,33.1,29.82,West,270,3.8,4.9,66,0.00,,CLR,0.00,VWS V14.01,2013-02-17 14:29:00,
2013-02-17 08:34:00,44.1,33.4,29.82,WSW,248,3.8,5.6,66,0.00,,CLR,0.00,VWS V14.01,2013-02-17 14:34:00,
2013-02-17 08:39:00,44.6,34.0,29.85,WNW,292,2.5,5.6,66,0.00,,CLR,0.00,VWS V14.01,2013-02-17 14:39:00,
2013-02-17 08:44:00,45.5,34.4,29.85,West,270,2.9,4.9,65,0.00,,CLR,0.00,VWS V14.01,2013-02-17 14:44:00,
2013-02-17 08:49:00,46.0,34.6,29.85,WNW,292,3.1,3.6,64,0.00,,CLR,0.00,VWS V14.01,2013-02-17 14:49:00,
2013-02-17 08:54:00,46.9,35.0,29.85,WSW,248,3.4,3.8,63,0.00,,CLR,0.00,VWS V14.01,2013-02-17 14:54:00,
2013-02-17 08:59:00,47.3,34.5,29.85,West,270,6.3,6.3,61,0.00,,CLR,0.00,VWS V14.01,2013-02-17 14:59:00,
2013-02-17 09:04:00,49.1,35.4,29.85,WSW,248,3.8,6.0,59,0.00,,CLR,0.00,VWS V14.01,2013-02-17 15:04:00,
2013-02-17 09:10:00,50.4,34.8,29.85,West,270,3.4,5.8,55,0.00,,CLR,0.00,VWS V14.01,2013-02-17 15:10:00,
2013-02-17 09:15:00,51.8,35.7,29.85,WNW,292,4.0,4.0,54,0.00,,CLR,0.00,VWS V14.01,2013-02-17 15:15:00,
2013-02-17 09:20:00,52.7,36.1,29.85,WSW,248,2.0,3.8,53,0.00,,CLR,0.00,VWS V14.01,2013-02-17 15:20:00,
2013-02-17 09:25:00,54.5,36.3,29.82,West,270,4.0,4.3,50,0.00,,CLR,0.00,VWS V14.01,2013-02-17 15:25:00,
2013-02-17 09:30:00,55.9,36.5,29.82,WNW,292,2.0,4.0,48,0.00,,CLR,0.00,VWS V14.01,2013-02-17 15:30:00,
2013-02-17 09:35:00,56.8,36.8,29.82,North,0,5.6,5.6,47,0.00,,CLR,0.00,VWS V14.01,2013-02-17 15:35:00,
2013-02-17 09:40:00,57.9,36.7,29.85,WSW,248,4.0,6.3,45,0.00,,CLR,0.00,VWS V14.01,2013-02-17 15:40:00,
2013-02-17 09:45:00,58.1,36.3,29.85,NNW,338,6.0,6.3,44,0.00,,CLR,0.00,VWS V14.01,2013-02-17 15:45:00,
2013-02-17 09:50:00,59.7,36.6,29.85,WNW,292,4.0,4.0,42,0.00,,CLR,0.00,VWS V14.01,2013-02-17 15:50:00,
2013-02-17 09:55:00,61.0,35.9,29.85,WNW,292,2.7,7.4,39,0.00,,CLR,0.00,VWS V14.01,2013-02-17 15:55:00,
2013-02-17 10:00:00,61.5,36.3,29.85,WSW,248,3.8,4.3,39,0.00,,CLR,0.00,VWS V14.01,2013-02-17 16:00:00,
2013-02-17 10:05:00,62.4,35.8,29.85,WNW,292,8.1,8.1,37,0.00,,CLR,0.00,VWS V14.01,2013-02-17 16:05:00,
2013-02-17 10:10:00,63.0,35.6,29.82,WSW,248,5.4,5.4,36,0.00,,CLR,0.00,VWS V14.01,2013-02-17 16:10:00,
2013-02-17 10:15:00,63.1,35.1,29.82,West,270,2.9,10.5,35,0.00,,CLR,0.00,VWS V14.01,2013-02-17 16:15:00,
2013-02-17 10:20:00,63.1,35.1,29.82,West,270,4.9,5.8,35,0.00,,CLR,0.00,VWS V14.01,2013-02-17 16:20:00,
2013-02-17 10:25:00,64.8,37.2,29.82,WNW,292,3.6,4.3,36,0.00,,CLR,0.00,VWS V14.01,2013-02-17 16:25:00,
2013-02-17 10:30:00,64.8,35.8,29.82,NNW,338,8.7,8.7,34,0.00,,CLR,0.00,VWS V14.01,2013-02-17 16:30:00,
2013-02-17 10:35:00,64.4,35.5,29.82,West,270,5.8,9.2,34,0.00,,CLR,0.00,VWS V14.01,2013-02-17 16:35:00,
2013-02-17 10:40:00,64.6,35.6,29.79,WNW,292,6.0,6.0,34,0.00,,CLR,0.00,VWS V14.01,2013-02-17 16:40:00,
2013-02-17 10:46:00,66.0,36.9,29.79,West,270,5.8,6.0,34,0.00,,CLR,0.00,VWS V14.01,2013-02-17 16:46:00,
2013-02-17 10:51:00,66.0,36.9,29.79,WSW,248,3.1,4.3,34,0.00,,CLR,0.00,VWS V14.01,2013-02-17 16:51:00,
2013-02-17 10:57:00,66.7,36.8,29.79,West,270,5.6,8.7,33,0.00,,CLR,0.00,VWS V14.01,2013-02-17 16:57:00,
2013-02-17 11:02:00,67.3,37.2,29.79,WSW,248,5.6,5.6,33,0.00,,CLR,0.00,VWS V14.01,2013-02-17 17:02:00,
2013-02-17 11:07:00,66.7,36.0,29.76,WNW,292,8.5,8.5,32,0.00,,CLR,0.00,VWS V14.01,2013-02-17 17:07:00,
2013-02-17 11:12:00,66.7,36.0,29.76,SW,225,5.6,9.8,32,0.00,,CLR,0.00,VWS V14.01,2013-02-17 17:12:00,
2013-02-17 11:17:00,67.1,36.3,29.76,NNW,338,3.8,8.7,32,0.00,,CLR,0.00,VWS V14.01,2013-02-17 17:17:00,
2013-02-17 11:22:00,67.3,35.6,29.74,WNW,292,4.0,7.4,31,0.00,,CLR,0.00,VWS V14.01,2013-02-17 17:22:00,
2013-02-17 11:27:00,68.2,36.4,29.74,WSW,248,6.0,6.0,31,0.00,,CLR,0.00,VWS V14.01,2013-02-17 17:27:00,
2013-02-17 11:32:00,68.4,35.8,29.74,WNW,292,3.8,8.1,30,0.00,,CLR,0.00,VWS V14.01,2013-02-17 17:32:00,
2013-02-17 11:38:00,68.5,37.5,29.74,NNW,338,2.7,7.4,32,0.00,,CLR,0.00,VWS V14.01,2013-02-17 17:38:00,
2013-02-17 11:43:00,69.4,37.5,29.74,WNW,292,3.4,3.4,31,0.00,,CLR,0.00,VWS V14.01,2013-02-17 17:43:00,
2013-02-17 11:48:00,70.3,37.5,29.74,North,0,4.9,6.5,30,0.00,,CLR,0.00,VWS V14.01,2013-02-17 17:48:00,
2013-02-17 11:53:00,70.5,37.6,29.71,WNW,292,4.7,7.2,30,0.00,,CLR,0.00,VWS V14.01,2013-02-17 17:53:00,
2013-02-17 11:58:00,70.7,37.8,29.71,WSW,248,7.8,8.5,30,0.00,,CLR,0.00,VWS V14.01,2013-02-17 17:58:00,
2013-02-17 12:03:00,69.8,37.8,29.71,NW,315,4.9,5.4,31,0.00,,CLR,0.00,VWS V14.01,2013-02-17 18:03:00,
2013-02-17 12:08:00,69.8,37.0,29.68,WSW,248,5.4,9.8,30,0.00,,CLR,0.00,VWS V14.01,2013-02-17 18:08:00,
2013-02-17 12:13:00,70.2,38.1,29.68,West,270,7.4,7.4,31,0.00,,CLR,0.00,VWS V14.01,2013-02-17 18:13:00,
2013-02-17 12:18:00,69.6,36.8,29.68,WNW,292,5.4,8.5,30,0.00,,CLR,0.00,VWS V14.01,2013-02-17 18:18:00,
2013-02-17 12:23:00,69.8,37.0,29.68,WSW,248,5.6,6.5,30,0.00,,CLR,0.00,VWS V14.01,2013-02-17 18:23:00,
2013-02-17 12:29:00,70.0,35.4,29.68,WNW,292,3.6,7.2,28,0.00,,CLR,0.00,VWS V14.01,2013-02-17 18:29:00,
2013-02-17 12:34:00,70.9,37.1,29.68,WNW,292,6.3,6.3,29,0.00,,CLR,0.00,VWS V14.01,2013-02-17 18:34:00,
2013-02-17 12:40:00,71.4,36.7,29.65,West,270,4.7,4.7,28,0.00,,CLR,0.00,VWS V14.01,2013-02-17 18:40:00,
2013-02-17 12:45:00,72.1,36.3,29.65,WNW,292,1.1,6.3,27,0.00,,CLR,0.00,VWS V14.01,2013-02-17 18:45:00,
2013-02-17 12:50:00,73.0,37.1,29.65,WSW,248,3.4,7.2,27,0.00,,CLR,0.00,VWS V14.01,2013-02-17 18:50:00,
2013-02-17 12:55:00,72.1,33.4,29.62,WNW,292,10.1,10.1,24,0.00,,CLR,0.00,VWS V14.01,2013-02-17 18:55:00,
2013-02-17 13:00:00,71.8,33.1,29.62,WNW,292,8.5,10.3,24,0.00,,CLR,0.00,VWS V14.01,2013-02-17 19:00:00,
2013-02-17 13:05:00,72.5,33.7,29.62,WSW,248,6.7,8.7,24,0.00,,CLR,0.00,VWS V14.01,2013-02-17 19:05:00,
2013-02-17 13:10:00,71.8,32.0,29.62,WNW,292,3.8,8.7,23,0.00,,CLR,0.00,VWS V14.01,2013-02-17 19:10:00,
2013-02-17 13:15:00,71.6,30.8,29.62,WNW,292,4.9,7.6,22,0.00,,CLR,0.00,VWS V14.01,2013-02-17 19:15:00,
2013-02-17 13:21:00,73.0,33.1,29.59,WNW,292,4.3,4.9,23,0.00,,CLR,0.00,VWS V14.01,2013-02-17 19:21:00,
2013-02-17 13:27:00,72.5,30.4,29.59,SW,225,8.1,8.7,21,0.00,,CLR,0.00,VWS V14.01,2013-02-17 19:27:00,
2013-02-17 13:32:00,72.5,30.4,29.59,WNW,292,7.8,10.1,21,0.00,,CLR,0.00,VWS V14.01,2013-02-17 19:32:00,
2013-02-17 13:37:00,72.3,14.9,29.59,West,270,8.5,10.7,11,0.00,,CLR,0.00,VWS V14.01,2013-02-17 19:37:00,
2013-02-17 13:42:00,72.3,20.5,29.59,West,270,9.0,10.7,14,0.00,,CLR,0.00,VWS V14.01,2013-02-17 19:42:00,
2013-02-17 13:48:00,72.9,15.3,29.59,WNW,292,6.0,6.0,11,0.00,,CLR,0.00,VWS V14.01,2013-02-17 19:48:00,
2013-02-17 13:53:00,73.4,2.3,29.56,NNW,338,8.5,8.5,6,0.00,,CLR,0.00,VWS V14.01,2013-02-17 19:53:00,
2013-02-17 13:58:00,73.4,2.3,29.56,NNW,338,7.6,7.6,6,0.00,,CLR,0.00,VWS V14.01,2013-02-17 19:58:00,
2013-02-17 14:04:00,73.9,9.0,29.56,WNW,292,9.8,10.3,8,0.00,,CLR,0.00,VWS V14.01,2013-02-17 20:04:00,
2013-02-17 14:09:00,73.0,-12.3,29.56,West,270,6.5,10.1,3,0.00,,CLR,0.00,VWS V14.01,2013-02-17 20:09:00,
2013-02-17 14:14:00,73.2,-12.2,29.56,WNW,292,2.9,7.4,3,0.00,,CLR,0.00,VWS V14.01,2013-02-17 20:14:00,
2013-02-17 14:20:00,73.4,-20.0,29.56,WNW,292,7.4,10.7,2,0.00,,CLR,0.00,VWS V14.01,2013-02-17 20:20:00,
2013-02-17 14:25:00,73.2,-12.2,29.53,WNW,292,12.1,12.1,3,0.00,,CLR,0.00,VWS V14.01,2013-02-17 20:25:00,
2013-02-17 14:30:00,73.4,2.3,29.53,NW,315,5.8,5.8,6,0.00,,CLR,0.00,VWS V14.01,2013-02-17 20:30:00,
2013-02-17 14:36:00,73.6,-12.0,29.53,WNW,292,5.8,6.3,3,0.00,,CLR,0.00,VWS V14.01,2013-02-17 20:36:00,
2013-02-17 14:42:00,73.0,-6.5,29.53,WNW,292,7.4,8.1,4,0.00,,CLR,0.00,VWS V14.01,2013-02-17 20:42:00,
2013-02-17 14:47:00,72.7,-12.6,29.53,WNW,292,7.6,7.8,3,0.00,,CLR,0.00,VWS V14.01,2013-02-17 20:47:00,
2013-02-17 14:52:00,72.0,-13.1,29.53,WNW,292,10.1,10.1,3,0.00,,CLR,0.00,VWS V14.01,2013-02-17 20:52:00,
2013-02-17 14:57:00,72.1,-12.9,29.53,West,270,6.0,7.8,3,0.00,,CLR,0.00,VWS V14.01,2013-02-17 20:57:00,
2013-02-17 15:02:00,72.3,-12.8,29.53,West,270,3.6,6.7,3,0.00,,CLR,0.00,VWS V14.01,2013-02-17 21:02:00,
2013-02-17 15:08:00,72.0,-13.1,29.50,West,270,6.3,10.5,3,0.00,,CLR,0.00,VWS V14.01,2013-02-17 21:08:00,
2013-02-17 15:14:00,71.6,-13.3,29.50,West,270,8.7,8.7,3,0.00,,CLR,0.00,VWS V14.01,2013-02-17 21:14:00,
2013-02-17 15:19:00,71.2,-13.6,29.50,West,270,4.7,6.3,3,0.00,,CLR,0.00,VWS V14.01,2013-02-17 21:19:00,
2013-02-17 15:24:00,71.1,-13.7,29.50,WSW,248,4.0,7.4,3,0.00,,CLR,0.00,VWS V14.01,2013-02-17 21:24:00,
2013-02-17 15:29:00,70.2,-14.3,29.50,WNW,292,7.8,7.8,3,0.00,,CLR,0.00,VWS V14.01,2013-02-17 21:29:00,
2013-02-17 15:35:00,69.6,-8.9,29.50,West,270,9.6,11.0,4,0.00,,CLR,0.00,VWS V14.01,2013-02-17 21:35:00,
2013-02-17 15:40:00,69.3,-4.6,29.50,WSW,248,8.7,9.0,5,0.00,,CLR,0.00,VWS V14.01,2013-02-17 21:40:00,
2013-02-17 15:46:00,69.1,-4.7,29.50,WSW,248,9.4,10.7,5,0.00,,CLR,0.00,VWS V14.01,2013-02-17 21:46:00,
2013-02-17 15:51:00,68.7,-4.9,29.50,West,270,8.5,11.0,5,0.00,,CLR,0.00,VWS V14.01,2013-02-17 21:51:00,
2013-02-17 15:56:00,68.5,-9.6,29.50,WNW,292,6.3,7.6,4,0.00,,CLR,0.00,VWS V14.01,2013-02-17 21:56:00,
2013-02-17 16:01:00,68.4,-9.8,29.50,WSW,248,9.6,11.9,4,0.00,,CLR,0.00,VWS V14.01,2013-02-17 22:01:00,
2013-02-17 16:06:00,68.2,9.6,29.50,WNW,292,8.1,8.1,10,0.00,,CLR,0.00,VWS V14.01,2013-02-17 22:06:00,
2013-02-17 16:12:00,68.0,9.4,29.50,West,270,7.4,10.3,10,0.00,,CLR,0.00,VWS V14.01,2013-02-17 22:12:00,
2013-02-17 16:17:00,68.0,13.5,29.50,WNW,292,4.3,6.9,12,0.00,,CLR,0.00,VWS V14.01,2013-02-17 22:17:00,
2013-02-17 16:23:00,67.8,13.4,29.50,WSW,248,10.1,10.1,12,0.00,,CLR,0.00,VWS V14.01,2013-02-17 22:23:00,
2013-02-17 16:28:00,67.8,18.5,29.50,WNW,292,7.4,7.4,15,0.00,,CLR,0.00,VWS V14.01,2013-02-17 22:28:00,
2013-02-17 16:33:00,68.4,19.0,29.50,WNW,292,7.4,10.3,15,0.00,,CLR,0.00,VWS V14.01,2013-02-17 22:33:00,
2013-02-17 16:38:00,68.0,21.6,29.50,WNW,292,7.4,8.1,17,0.00,,CLR,0.00,VWS V14.01,2013-02-17 22:38:00,
2013-02-17 16:43:00,67.8,18.5,29.50,WSW,248,4.9,8.7,15,0.00,,CLR,0.00,VWS V14.01,2013-02-17 22:43:00,
2013-02-17 16:48:00,67.6,13.2,29.50,West,270,5.8,7.8,12,0.00,,CLR,0.00,VWS V14.01,2013-02-17 22:48:00,
2013-02-17 16:54:00,67.3,18.1,29.50,West,270,7.4,8.5,15,0.00,,CLR,0.00,VWS V14.01,2013-02-17 22:54:00,
2013-02-17 16:59:00,67.1,24.7,29.50,West,270,6.5,9.8,20,0.00,,CLR,0.00,VWS V14.01,2013-02-17 22:59:00,
2013-02-17 17:04:00,67.1,27.0,29.50,WNW,292,8.5,8.5,22,0.00,,CLR,0.00,VWS V14.01,2013-02-17 23:04:00,
2013-02-17 17:10:00,66.9,27.9,29.50,WSW,248,10.1,10.1,23,0.00,,CLR,0.00,VWS V14.01,2013-02-17 23:10:00,
2013-02-17 17:16:00,66.7,27.8,29.50,WSW,248,6.0,10.7,23,0.00,,CLR,0.00,VWS V14.01,2013-02-17 23:16:00,
2013-02-17 17:22:00,66.6,28.7,29.50,WSW,248,6.3,7.2,24,0.00,,CLR,0.00,VWS V14.01,2013-02-17 23:22:00,
2013-02-17 17:28:00,66.2,28.4,29.50,WNW,292,5.8,9.6,24,0.00,,CLR,0.00,VWS V14.01,2013-02-17 23:28:00,
2013-02-17 17:33:00,65.8,29.1,29.50,West,270,7.4,8.1,25,0.00,,CLR,0.00,VWS V14.01,2013-02-17 23:33:00,
2013-02-17 17:38:00,65.5,28.8,29.50,WNW,292,6.0,7.8,25,0.00,,CLR,0.00,VWS V14.01,2013-02-17 23:38:00,
2013-02-17 17:43:00,65.1,28.5,29.50,WNW,292,6.3,8.5,25,0.00,,CLR,0.00,VWS V14.01,2013-02-17 23:43:00,
2013-02-17 17:49:00,64.8,29.1,29.50,WSW,248,5.6,6.5,26,0.00,,CLR,0.00,VWS V14.01,2013-02-17 23:49:00,
2013-02-17 17:54:00,64.6,29.0,29.50,WNW,292,3.1,5.4,26,0.00,,CLR,0.00,VWS V14.01,2013-02-17 23:54:00,
2013-02-17 18:00:00,64.4,28.8,29.50,WNW,292,4.0,5.4,26,0.00,,CLR,0.00,VWS V14.01,2013-02-18 00:00:00,
2013-02-17 18:05:00,63.9,29.3,29.50,West,270,2.7,4.3,27,0.00,,CLR,0.00,VWS V14.01,2013-02-18 00:05:00,
2013-02-17 18:10:00,63.3,29.7,29.50,WSW,248,3.6,3.6,28,0.00,,CLR,0.00,VWS V14.01,2013-02-18 00:10:00,
2013-02-17 18:15:00,63.0,29.4,29.50,WSW,248,3.1,3.8,28,0.00,,CLR,0.00,VWS V14.01,2013-02-18 00:15:00,
2013-02-17 18:20:00,62.4,29.8,29.50,West,270,2.7,3.6,29,0.00,,CLR,0.00,VWS V14.01,2013-02-18 00:20:00,
2013-02-17 18:25:00,62.1,30.3,29.50,West,270,3.4,3.6,30,0.00,,CLR,0.00,VWS V14.01,2013-02-18 00:25:00,
2013-02-17 18:30:00,61.7,30.8,29.50,WSW,248,2.7,3.4,31,0.00,,CLR,0.00,VWS V14.01,2013-02-18 00:30:00,
2013-02-17 18:35:00,61.3,31.2,29.50,WSW,248,2.9,3.1,32,0.00,,CLR,0.00,VWS V14.01,2013-02-18 00:35:00,
2013-02-17 18:40:00,61.2,31.1,29.53,WSW,248,3.1,3.4,32,0.00,,CLR,0.00,VWS V14.01,2013-02-18 00:40:00,
2013-02-17 18:45:00,60.8,32.3,29.53,WSW,248,4.0,4.0,34,0.00,,CLR,0.00,VWS V14.01,2013-02-18 00:45:00,
2013-02-17 18:51:00,60.6,32.1,29.53,West,270,3.6,3.6,34,0.00,,CLR,0.00,VWS V14.01,2013-02-18 00:51:00,
2013-02-17 18:56:00,60.4,32.0,29.53,West,270,4.0,4.3,34,0.00,,CLR,0.00,VWS V14.01,2013-02-18 00:56:00,
2013-02-17 19:01:00,60.3,31.8,29.53,WSW,248,4.0,4.0,34,0.00,,CLR,0.00,VWS V14.01,2013-02-18 01:01:00,
2013-02-17 19:07:00,60.1,32.4,29.56,WSW,248,3.4,4.0,35,0.00,,CLR,0.00,VWS V14.01,2013-02-18 01:07:00,
2013-02-17 19:12:00,60.3,32.5,29.56,West,270,3.6,7.4,35,0.00,,CLR,0.00,VWS V14.01,2013-02-18 01:12:00,
2013-02-17 19:17:00,60.3,32.5,29.56,WNW,292,6.5,6.5,35,0.00,,CLR,0.00,VWS V14.01,2013-02-18 01:17:00,
2013-02-17 19:22:00,60.4,33.4,29.56,WSW,248,6.5,7.6,36,0.00,,CLR,0.00,VWS V14.01,2013-02-18 01:22:00,
2013-02-17 19:27:00,60.4,34.1,29.56,WSW,248,5.4,6.3,37,0.00,,CLR,0.00,VWS V14.01,2013-02-18 01:27:00,
2013-02-17 19:32:00,60.4,34.7,29.56,West,270,5.6,7.6,38,0.00,,CLR,0.00,VWS V14.01,2013-02-18 01:32:00,
2013-02-17 19:37:00,60.4,36.0,29.56,WNW,292,4.3,8.5,40,0.00,,CLR,0.00,VWS V14.01,2013-02-18 01:37:00,
2013-02-17 19:42:00,60.4,36.7,29.56,WNW,292,4.9,7.6,41,0.00,,CLR,0.00,VWS V14.01,2013-02-18 01:42:00,
2013-02-17 19:47:00,60.4,37.3,29.56,WSW,248,8.7,11.2,42,0.00,,CLR,0.00,VWS V14.01,2013-02-18 01:47:00,
2013-02-17 19:53:00,60.3,37.7,29.53,WSW,248,8.1,8.7,43,0.00,,CLR,0.00,VWS V14.01,2013-02-18 01:53:00,
2013-02-17 19:58:00,60.1,38.1,29.53,WSW,248,4.3,5.6,44,0.00,,CLR,0.00,VWS V14.01,2013-02-18 01:58:00,
2013-02-17 20:03:00,60.1,38.1,29.53,WSW,248,10.3,10.3,44,0.00,,CLR,0.00,VWS V14.01,2013-02-18 02:03:00,
2013-02-17 20:08:00,59.9,38.0,29.56,WSW,248,10.1,13.2,44,0.00,,CLR,0.00,VWS V14.01,2013-02-18 02:08:00,
2013-02-17 20:14:00,59.7,37.8,29.56,WSW,248,9.4,9.8,44,0.00,,CLR,0.00,VWS V14.01,2013-02-18 02:14:00,
2013-02-17 20:19:00,59.5,37.6,29.56,WSW,248,5.8,9.6,44,0.00,,CLR,0.00,VWS V14.01,2013-02-18 02:19:00,
2013-02-17 20:24:00,59.4,38.0,29.59,West,270,7.8,7.8,45,0.00,,CLR,0.00,VWS V14.01,2013-02-18 02:24:00,
2013-02-17 20:30:00,59.2,37.9,29.59,West,270,6.0,7.8,45,0.00,,CLR,0.00,VWS V14.01,2013-02-18 02:30:00,
2013-02-17 20:35:00,59.0,37.7,29.59,West,270,7.4,7.8,45,0.00,,CLR,0.00,VWS V14.01,2013-02-18 02:35:00,
2013-02-17 20:41:00,58.8,38.1,29.59,WSW,248,6.9,12.1,46,0.00,,CLR,0.00,VWS V14.01,2013-02-18 02:41:00,
2013-02-17 20:46:00,58.8,38.1,29.59,West,270,10.3,10.3,46,0.00,,CLR,0.00,VWS V14.01,2013-02-18 02:46:00,
2013-02-17 20:51:00,58.8,38.1,29.59,WNW,292,4.9,6.3,46,0.00,,CLR,0.00,VWS V14.01,2013-02-18 02:51:00,
2013-02-17 20:56:00,58.6,37.9,29.59,WSW,248,7.6,10.1,46,0.00,,CLR,0.00,VWS V14.01,2013-02-18 02:56:00,
2013-02-17 21:01:00,58.5,38.3,29.59,WSW,248,6.0,7.8,47,0.00,,CLR,0.00,VWS V14.01,2013-02-18 03:01:00,
2013-02-17 21:06:00,58.3,38.2,29.59,West,270,5.6,7.6,47,0.00,,CLR,0.00,VWS V14.01,2013-02-18 03:06:00,
2013-02-17 21:11:00,58.1,38.5,29.59,WSW,248,4.3,6.0,48,0.00,,CLR,0.00,VWS V14.01,2013-02-18 03:11:00,
2013-02-17 21:17:00,57.9,38.4,29.59,WNW,292,5.6,6.7,48,0.00,,CLR,0.00,VWS V14.01,2013-02-18 03:17:00,
2013-02-17 21:22:00,57.7,38.7,29.62,WSW,248,4.7,6.3,49,0.00,,CLR,0.00,VWS V14.01,2013-02-18 03:22:00,
2013-02-17 21:28:00,57.6,38.6,29.62,WNW,292,6.0,6.0,49,0.00,,CLR,0.00,VWS V14.01,2013-02-18 03:28:00,
2013-02-17 21:33:00,57.4,38.4,29.62,WSW,248,6.3,7.6,49,0.00,,CLR,0.00,VWS V14.01,2013-02-18 03:33:00,
2013-02-17 21:38:00,57.2,38.8,29.59,West,270,7.8,7.8,50,0.00,,CLR,0.00,VWS V14.01,2013-02-18 03:38:00,
2013-02-17 21:44:00,57.0,39.1,29.59,WNW,292,5.6,11.4,51,0.00,,CLR,0.00,VWS V14.01,2013-02-18 03:44:00,
2013-02-17 21:49:00,57.0,39.6,29.59,WNW,292,8.5,8.5,52,0.00,,CLR,0.00,VWS V14.01,2013-02-18 03:49:00,
2013-02-17 21:55:00,57.0,39.6,29.62,WSW,248,5.8,5.8,52,0.00,,CLR,0.00,VWS V14.01,2013-02-18 03:55:00,
2013-02-17 22:00:00,56.8,39.9,29.62,WSW,248,4.0,5.4,53,0.00,,CLR,0.00,VWS V14.01,2013-02-18 04:00:00,
2013-02-17 22:06:00,56.7,39.7,29.59,WSW,248,4.9,5.6,53,0.00,,CLR,0.00,VWS V14.01,2013-02-18 04:06:00,
2013-02-17 22:11:00,56.7,40.2,29.59,WNW,292,12.1,12.1,54,0.00,,CLR,0.00,VWS V14.01,2013-02-18 04:11:00,
2013-02-17 22:16:00,56.5,40.0,29.59,WNW,292,4.0,4.0,54,0.00,,CLR,0.00,VWS V14.01,2013-02-18 04:16:00,
2013-02-17 22:23:00,56.5,40.5,29.62,WSW,248,6.9,8.1,55,0.00,,CLR,0.00,VWS V14.01,2013-02-18 04:23:00,
2013-02-17 22:28:00,56.3,40.8,29.62,WNW,292,6.5,8.7,56,0.00,,CLR,0.00,VWS V14.01,2013-02-18 04:28:00,
2013-02-17 22:34:00,56.1,41.1,29.62,WSW,248,5.4,6.5,57,0.00,,CLR,0.00,VWS V14.01,2013-02-18 04:34:00,
2013-02-17 22:39:00,56.1,41.6,29.62,WSW,248,6.0,7.6,58,0.00,,CLR,0.00,VWS V14.01,2013-02-18 04:39:00,
2013-02-17 22:44:00,56.1,41.6,29.62,WSW,248,4.9,5.8,58,0.00,,CLR,0.00,VWS V14.01,2013-02-18 04:44:00,
2013-02-17 22:49:00,56.1,42.0,29.62,WSW,248,5.8,6.3,59,0.00,,CLR,0.00,VWS V14.01,2013-02-18 04:49:00,
2013-02-17 22:55:00,55.9,42.3,29.62,WNW,292,4.9,6.5,60,0.00,,CLR,0.00,VWS V14.01,2013-02-18 04:55:00,
2013-02-17 23:00:00,55.9,42.3,29.62,WSW,248,4.9,6.0,60,0.00,,CLR,0.00,VWS V14.01,2013-02-18 05:00:00,
2013-02-17 23:01:00,55.9,42.3,29.62,West,270,5.6,7.2,60,0.00,,CLR,0.00,VWS V14.01,2013-02-18 05:01:00,
2013-02-17 23:04:00,55.8,42.5,29.62,West,270,6.0,8.7,61,0.00,,CLR,0.00,VWS V14.01,2013-02-18 05:04:00,
2013-02-17 23:08:00,55.8,42.5,29.62,NW,315,7.6,7.8,61,0.00,,CLR,0.00,VWS V14.01,2013-02-18 05:08:00,
2013-02-17 23:13:00,55.6,42.4,29.62,WSW,248,4.9,4.9,61,0.00,,CLR,0.00,VWS V14.01,2013-02-18 05:13:00,
2013-02-17 23:19:00,55.4,42.6,29.62,WSW,248,6.3,6.3,62,0.00,,CLR,0.00,VWS V14.01,2013-02-18 05:19:00,
2013-02-17 23:24:00,55.4,43.0,29.65,WSW,248,7.8,7.8,63,0.00,,CLR,0.00,VWS V14.01,2013-02-18 05:24:00,
2013-02-17 23:30:00,55.2,42.9,29.65,WSW,248,5.8,6.3,63,0.00,,CLR,0.00,VWS V14.01,2013-02-18 05:30:00,
2013-02-17 23:35:00,55.2,43.3,29.65,WNW,292,4.9,5.8,64,0.00,,CLR,0.00,VWS V14.01,2013-02-18 05:35:00,
2013-02-17 23:40:00,55.0,43.1,29.62,WSW,248,4.0,4.9,64,0.00,,CLR,0.00,VWS V14.01,2013-02-18 05:40:00,
2013-02-17 23:45:00,55.0,43.5,29.62,WSW,248,4.3,5.4,65,0.00,,CLR,0.00,VWS V14.01,2013-02-18 05:45:00,
2013-02-17 23:51:00,54.9,43.3,29.62,WSW,248,4.3,4.9,65,0.00,,CLR,0.00,VWS V14.01,2013-02-18 05:51:00,
2013-02-17 23:56:00,54.7,43.6,29.62,West,270,4.0,6.0,66,0.00,,CLR,0.00,VWS V14.01,2013-02-18 05:56:00,